Ciudad Obregon, Mexico

7:21 AM MST on December 08, 2016 (GMT -0700)
Ciudad Obregon International | | Change Station

Elev 203 ft 27.39 °N, 109.83 °W | Updated 38 minutes ago

Clear
Clear
48 °F
Feels Like 48 °F
N
2
Wind Variable Wind from West

Today
High -- | Low -- °F
--% Chance of Precip.
Yesterday
High -- | Low -- °F
Precip. -- in
Pressure 30.02 in
Visibility 10.0 miles
Clouds Clear
Dew Point 43 °F
Humidity 82%
Rainfall 0.00 in
Snow Depth Not available.
6:57 AM 5:25 PM
Waxing Gibbous, 63% visible
METAR MMCN 081343Z 28002KT 10SM SKC 09/06 A3002 RMK HZY
Pressure 30.02 in
Visibility 10.0 miles
Clouds Clear
Dew Point 43 °F
Humidity 82%
Rainfall 0.00 in
Snow Depth Not available.
6:57 AM 5:25 PM
Waxing Gibbous, 63% visible
METAR MMCN 081343Z 28002KT 10SM SKC 09/06 A3002 RMK HZY

10-Day Weather Forecast

No radar image for this location.
×

Almanac

Astronomy

Dec. 08, 2016 Rise Set
Actual Time
Civil Twilight
Nautical Twilight
Astronomical Twilight
Moon
Length of Visible Light
Length of Day
Tomorrow will be .
, % of the Moon is Illuminated

Today's Extremes

Country Highs Country Lows

Community

WunderPhotos

Upload Photos

1,956,268 photos uploaded!

WunderBlog® & News

Nearby

Air Quality

  Air Quality AQ Index Pollutant
Not available.

Snow Depth

Station Depth Elevation

Earthquake Activity

City Distance Mag. Time & Date
Minimum magnitude displayed is 2.5.

Coastal Water Temperatures

Place Temperature

Stations

Nearby Weather Stations

Station Location Temp. Windchill Dew Point Humidity Wind Precip. Elev Updated Type